Orondo, Washington
Current Conditions -  °F | °C
As of 11:55 PM on Friday 19 Dec 2014 (Local Time) from KEAT Reporting Station
Haze Haze  
Wind Chill:   Ceiling: 800
Heat Index:   Visibility: 1.2mi
Dew Point:   Wind: 0mph
Humidity: 96%   Direction: NA
Pressure: 29.95"   Gusts: NA
Location:  47.63°N, 120.22°W
Report Text: KEAT 200755Z AUTO 00000KT 1 1/4SM BR OVC008 02/01 A2995 RMK AO2 SLP150 T00170011 400720006
Loading
Personal Weather Stations






























Interactive Weather Map New forecast layout! Learn more

10-Day Weather Forecast

Advertisements
Track Severe Weather on mobile